createdAt,value
2022-12-23T00:01:20.266Z,99983.91
2022-12-23T00:03:45.909Z,99983.59
2022-12-23T00:06:12.362Z,99990.72
2022-12-23T00:08:37.987Z,99987.16
2022-12-23T00:11:04.399Z,99981.66
2022-12-23T00:13:49.851Z,99983.59
2022-12-23T00:16:15.488Z,99986.34
2022-12-23T00:18:41.561Z,99977.25
2022-12-23T00:21:09.311Z,99985.53
2022-12-23T00:23:35.773Z,99979.19
2022-12-23T00:26:01.507Z,99978.09
2022-12-23T00:28:27.290Z,99980.03
2022-12-23T00:30:53.811Z,99987.47
2022-12-23T00:33:20.679Z,99986.34
2022-12-23T00:35:46.379Z,99993.81
2022-12-23T00:38:11.978Z,99991.84
2022-12-23T00:40:57.561Z,99991.03
2022-12-23T00:43:23.126Z,99997.69
2022-12-23T00:45:48.770Z,99994.91
2022-12-23T00:48:34.406Z,100002.88
2022-12-23T00:50:59.966Z,99999.31
2022-12-23T00:53:25.735Z,99999.31
2022-12-23T00:55:51.434Z,99992.97
2022-12-23T00:58:17.331Z,99995.75
2022-12-23T01:01:02.908Z,99999.31
2022-12-23T01:03:48.725Z,100001.25
2022-12-23T01:06:14.300Z,100002.06
2022-12-23T01:08:39.863Z,100006.75
2022-12-23T01:11:07.049Z,100010.63
2022-12-23T01:13:32.617Z,100014.22
2022-12-23T01:16:02.342Z,100020.81
2022-12-23T01:18:27.903Z,100027.16
2022-12-23T01:20:53.447Z,100035.44
2022-12-23T01:23:19.008Z,100027.16
2022-12-23T01:25:44.592Z,100034.31
2022-12-23T01:28:10.158Z,100038.19
2022-12-23T01:30:36.855Z,100031.84
2022-12-23T01:33:02.423Z,100041.75
2022-12-23T01:35:27.981Z,100039.28
2022-12-23T01:37:53.531Z,100037.34
2022-12-23T01:40:19.087Z,100032.69
2022-12-23T01:42:45.649Z,100040.94
2022-12-23T01:45:12.890Z,100045.59
2022-12-23T01:47:39.527Z,100047.53
2022-12-23T01:50:10.379Z,100051.97
2022-12-23T01:52:41.333Z,100060.22
2022-12-23T01:55:07.124Z,100051.97
2022-12-23T01:57:33.153Z,100052.25
2022-12-23T02:00:18.605Z,100044.53
2022-12-23T02:03:04.199Z,100047.28
2022-12-23T02:05:29.867Z,100053.06
2022-12-23T02:08:15.319Z,100050.31
2022-12-23T02:11:00.759Z,100042.84
2022-12-23T02:13:36.232Z,100048.38
2022-12-23T02:16:19.417Z,100045.59
2022-12-23T02:19:04.933Z,100053.06
2022-12-23T02:21:50.389Z,100053.88
2022-12-23T02:24:35.922Z,100051.13
2022-12-23T02:27:09.489Z,100072.34
2022-12-23T02:29:54.936Z,100075.91
2022-12-23T02:32:25.268Z,100084.19
2022-12-23T02:34:53.047Z,100083.38
2022-12-23T02:37:21.311Z,100089.69
2022-12-23T02:39:51.603Z,100093.56
2022-12-23T02:42:18.106Z,100099.91
2022-12-23T02:44:47.879Z,100094.38
2022-12-23T02:47:18.556Z,100100.72
2022-12-23T02:49:46.863Z,100102.66
2022-12-23T02:52:13.011Z,100096.31
2022-12-23T02:54:40.119Z,100095.50
2022-12-23T02:57:05.672Z,100104.59
2022-12-23T02:59:46.507Z,100106.53
2022-12-23T03:02:12.246Z,100106.53
2022-12-23T03:04:41.306Z,100115.63
2022-12-23T03:07:08.107Z,100121.13
2022-12-23T03:09:54.562Z,100131.31
2022-12-23T03:12:22.306Z,100141.53
2022-12-23T03:17:50.427Z,100153.38
2022-12-23T03:20:34.163Z,100159.69
2022-12-23T03:23:02.942Z,100163.56
2022-12-23T03:25:33.310Z,100156.13
2022-12-23T03:28:00.543Z,100156.94
2022-12-23T03:30:26.107Z,100147.03
2022-12-23T03:32:52.791Z,100140.41
2022-12-23T03:35:21.062Z,100138.78
2022-12-23T03:37:47.512Z,100144.28
2022-12-23T03:40:16.082Z,100148.69
2022-12-23T03:42:41.627Z,100147.03
2022-12-23T03:45:37.407Z,100145.91
2022-12-23T03:47:54.781Z,100136.03
2022-12-23T03:50:20.455Z,100142.34
2022-12-23T03:52:49.257Z,100145.91
2022-12-23T03:55:16.538Z,100140.72
2022-12-23T03:57:44.680Z,100141.53
2022-12-23T04:00:10.624Z,100136.03
2022-12-23T04:02:56.138Z,100138.78
2022-12-23T04:05:37.316Z,100147.03
2022-12-23T04:08:04.493Z,100142.66
2022-12-23T04:10:30.057Z,100153.38
2022-12-23T04:12:55.611Z,100149.81
2022-12-23T04:15:21.553Z,100142.66
2022-12-23T04:17:47.469Z,100143.47
2022-12-23T04:20:13.041Z,100136.03
2022-12-23T04:22:38.785Z,100133.25
2022-12-23T04:25:04.910Z,100143.47
2022-12-23T04:27:30.457Z,100140.72
2022-12-23T04:29:56.022Z,100151.72
2022-12-23T04:32:21.639Z,100146.22
2022-12-23T04:34:47.256Z,100152.56
2022-12-23T04:37:12.807Z,100144.28
2022-12-23T04:39:38.372Z,100148.97
2022-12-23T04:42:03.919Z,100148.97
2022-12-23T04:44:29.480Z,100147.03
2022-12-23T04:46:55.202Z,100147.03
2022-12-23T04:49:20.780Z,100160.00
2022-12-23T04:51:46.324Z,100160.00
2022-12-23T04:54:11.881Z,100153.69
2022-12-23T04:56:37.450Z,100151.72
2022-12-23T04:59:03.492Z,100154.50
2022-12-23T05:01:29.218Z,100157.25
2022-12-23T05:03:54.878Z,100168.28
2022-12-23T05:06:20.432Z,100161.94
2022-12-23T05:08:45.982Z,100164.69
2022-12-23T05:11:11.537Z,100165.50
2022-12-23T05:13:37.088Z,100164.69
2022-12-23T05:16:02.713Z,100176.53
2022-12-23T05:18:28.279Z,100166.31
2022-12-23T05:20:53.833Z,100164.69
2022-12-23T05:23:19.381Z,100167.44
2022-12-23T05:25:49.001Z,100157.25
2022-12-23T05:28:14.554Z,100160.00
2022-12-23T05:30:40.217Z,100161.94
2022-12-23T05:33:05.823Z,100164.69
2022-12-23T05:35:31.385Z,100162.75
2022-12-23T05:37:57.447Z,100165.50
2022-12-23T05:40:24.307Z,100161.94
2022-12-23T05:42:52.807Z,100172.16
2022-12-23T05:45:18.364Z,100177.66
2022-12-23T05:47:43.913Z,100183.97
2022-12-23T05:50:09.611Z,100193.06
2022-12-23T05:52:35.172Z,100200.50
2022-12-23T05:55:00.729Z,100209.59
2022-12-23T05:57:26.302Z,100211.53
2022-12-23T05:59:51.858Z,100209.59
2022-12-23T06:02:17.772Z,100211.53
2022-12-23T06:04:43.451Z,100208.78
2022-12-23T06:07:08.998Z,100217.03
2022-12-23T06:09:34.568Z,100219.81
2022-12-23T06:12:00.125Z,100217.88
2022-12-23T06:14:29.164Z,100222.56
2022-12-23T06:16:55.201Z,100227.25
2022-12-23T06:19:20.812Z,100222.56
2022-12-23T06:21:46.365Z,100215.38
2022-12-23T06:24:11.914Z,100206.03
2022-12-23T06:26:37.479Z,100205.22
2022-12-23T06:29:03.141Z,100202.44
2022-12-23T06:31:28.720Z,100195.00
2022-12-23T06:33:54.351Z,100195.00
2022-12-23T06:36:19.909Z,100190.59
2022-12-23T06:38:45.462Z,100188.69
2022-12-23T06:41:11.405Z,100193.06
2022-12-23T06:43:36.960Z,100186.75
2022-12-23T06:46:02.600Z,100190.59
2022-12-23T06:48:28.217Z,100179.56
2022-12-23T06:50:53.781Z,100186.75
2022-12-23T06:53:19.335Z,100190.59
2022-12-23T06:55:44.900Z,100180.41
2022-12-23T06:58:10.455Z,100185.91
2022-12-23T07:00:36.019Z,100182.31
2022-12-23T07:03:01.657Z,100183.16
2022-12-23T07:05:33.246Z,100183.97
2022-12-23T07:08:02.176Z,100192.25
2022-12-23T07:10:27.731Z,100194.19
2022-12-23T07:12:53.281Z,100207.97
2022-12-23T07:15:18.851Z,100227.25
2022-12-23T07:17:44.421Z,100236.34
2022-12-23T07:20:12.161Z,100251.19
2022-12-23T07:22:37.712Z,100255.63
2022-12-23T07:25:03.404Z,100263.06
2022-12-23T07:27:28.967Z,100261.41
2022-12-23T07:29:54.514Z,100271.34
2022-12-23T07:32:20.077Z,100274.91
2022-12-23T07:34:45.639Z,100263.06
2022-12-23T07:37:11.247Z,100263.06
2022-12-23T07:39:37.196Z,100264.16
2022-12-23T07:42:33.969Z,100271.34
2022-12-23T07:44:48.299Z,100265.81
2022-12-23T07:47:14.690Z,100261.41
2022-12-23T07:49:40.253Z,100261.41
2022-12-23T07:52:05.812Z,100257.56
2022-12-23T07:54:31.355Z,100251.19
2022-12-23T07:56:57.337Z,100258.38
2022-12-23T07:59:24.683Z,100260.59
2022-12-23T08:01:50.318Z,100243.78
2022-12-23T08:04:16.052Z,100250.09
2022-12-23T08:06:41.838Z,100247.63
2022-12-23T08:09:08.600Z,100254.81
2022-12-23T08:11:34.179Z,100258.66
2022-12-23T08:13:59.740Z,100251.19
2022-12-23T08:16:25.333Z,100251.19
2022-12-23T08:18:50.906Z,100248.44
2022-12-23T08:21:18.491Z,100254.81
2022-12-23T08:23:46.161Z,100241.84
2022-12-23T08:26:13.939Z,100243.78
2022-12-23T08:28:39.863Z,100240.19
2022-12-23T08:31:06.199Z,100235.50
2022-12-23T08:33:31.893Z,100240.19
2022-12-23T08:35:57.451Z,100231.91
2022-12-23T08:38:23.015Z,100226.69
2022-12-23T08:40:48.571Z,100218.13
2022-12-23T08:43:14.141Z,100230.00
2022-12-23T08:45:39.695Z,100228.34
2022-12-23T08:48:05.569Z,100233.84
2022-12-23T08:50:35.642Z,100210.72
2022-12-23T08:53:01.199Z,100214.56
2022-12-23T08:55:26.744Z,100232.75
2022-12-23T08:57:52.303Z,100220.88
2022-12-23T09:00:17.853Z,100229.16
2022-12-23T09:02:43.653Z,100231.91
2022-12-23T09:05:09.326Z,100242.13
2022-12-23T09:07:34.904Z,100245.69
2022-12-23T09:10:00.461Z,100239.34
2022-12-23T09:12:26.066Z,100242.13
2022-12-23T09:14:51.644Z,100241.28
2022-12-23T09:17:17.219Z,100234.66
2022-12-23T09:19:45.892Z,100231.91
2022-12-23T09:22:15.986Z,100222.81
2022-12-23T09:24:41.529Z,100220.88
2022-12-23T09:27:07.091Z,100220.06
2022-12-23T09:29:32.668Z,100213.47
2022-12-23T09:31:58.271Z,100218.97
2022-12-23T09:34:25.678Z,100216.22
2022-12-23T09:36:55.290Z,100207.97
2022-12-23T09:39:21.219Z,100193.34
2022-12-23T09:41:49.842Z,100190.59
2022-12-23T09:44:35.367Z,100198.03
2022-12-23T09:47:01.982Z,100198.03
2022-12-23T09:49:27.634Z,100202.44
2022-12-23T09:51:54.822Z,100197.75
2022-12-23T09:54:21.322Z,100178.75
2022-12-23T09:57:06.753Z,100168.53
2022-12-23T09:59:52.204Z,100171.28
2022-12-23T10:02:37.868Z,100162.22
2022-12-23T10:05:23.499Z,100151.19
2022-12-23T10:07:54.314Z,100170.47
2022-12-23T10:10:26.061Z,100170.47
2022-12-23T10:12:51.761Z,100163.88
2022-12-23T10:15:19.548Z,100155.63
2022-12-23T10:17:45.116Z,100150.09
2022-12-23T10:20:17.586Z,100140.16
2022-12-23T10:22:43.717Z,100134.66
2022-12-23T10:25:12.634Z,100121.69
2022-12-23T10:27:39.073Z,100117.03
2022-12-23T10:30:51.381Z,100102.41
2022-12-23T10:33:21.828Z,100103.25
2022-12-23T10:35:50.058Z,100118.13
2022-12-23T10:38:22.567Z,100115.09
2022-12-23T10:40:50.524Z,100128.06
2022-12-23T10:43:37.146Z,100113.44
2022-12-23T10:46:22.761Z,100103.25
2022-12-23T10:48:52.129Z,100108.78
2022-12-23T10:51:20.386Z,100104.06
2022-12-23T10:53:47.745Z,100093.34
2022-12-23T10:56:13.567Z,100093.34
2022-12-23T10:58:40.938Z,100078.75
2022-12-23T11:01:13.945Z,100075.72
2022-12-23T11:03:43.508Z,100091.41
2022-12-23T11:06:09.108Z,100072.09
2022-12-23T11:08:34.862Z,100074.88
2022-12-23T11:11:00.662Z,100065.78
2022-12-23T11:13:34.776Z,100064.69
2022-12-23T11:16:20.281Z,100072.94
2022-12-23T11:19:05.903Z,100065.50
2022-12-23T11:21:31.817Z,100059.19
2022-12-23T11:24:17.547Z,100051.72
2022-12-23T11:26:44.889Z,100041.81
2022-12-23T11:29:11.753Z,100026.94
2022-12-23T11:31:37.318Z,100019.75
2022-12-23T11:34:04.645Z,100011.50
2022-12-23T11:36:30.592Z,100018.66
2022-12-23T11:41:47.070Z,100008.75
2022-12-23T11:44:28.315Z,99982.03
2022-12-23T11:46:53.951Z,99974.88
2022-12-23T11:49:20.791Z,99964.66
2022-12-23T11:51:48.051Z,99954.47
2022-12-23T11:54:15.747Z,99943.47
2022-12-23T11:56:41.329Z,99940.72
2022-12-23T11:59:07.785Z,99931.59
2022-12-23T12:01:33.341Z,99920.56
2022-12-23T12:04:00.585Z,99913.16
2022-12-23T12:06:26.170Z,99904.88
2022-12-23T12:08:52.365Z,99899.38
2022-12-23T12:11:18.795Z,99912.31
2022-12-23T12:13:44.841Z,99907.66
2022-12-23T12:16:30.310Z,99906.81
2022-12-23T12:18:56.995Z,99897.72
2022-12-23T12:21:24.162Z,99909.56
2022-12-23T12:23:55.459Z,99904.88
2022-12-23T12:26:34.891Z,99899.38
2022-12-23T12:29:20.329Z,99899.38
2022-12-23T12:31:48.169Z,99881.19
2022-12-23T12:37:16.869Z,99871.84
2022-12-23T12:39:44.995Z,99862.72
2022-12-23T12:42:14.728Z,99850.88
2022-12-23T12:45:00.190Z,99850.88
2022-12-23T12:47:52.849Z,99840.69
2022-12-23T12:50:13.196Z,99830.50
2022-12-23T12:52:39.159Z,99819.47
2022-12-23T12:55:14.364Z,99817.81
2022-12-23T12:57:39.941Z,99813.97
2022-12-23T13:00:07.079Z,99804.88
2022-12-23T13:02:51.677Z,99802.94
2022-12-23T13:05:37.138Z,99787.25
2022-12-23T13:10:43.022Z,99774.56
2022-12-23T13:13:28.488Z,99793.84
2022-12-23T13:15:57.780Z,99794.69
2022-12-23T13:18:29.981Z,99775.41
2022-12-23T13:21:15.444Z,99756.13
2022-12-23T13:23:44.654Z,99739.59
2022-12-23T13:26:30.791Z,99736.00
2022-12-23T13:29:00.672Z,99725.81
2022-12-23T13:31:30.638Z,99734.06
2022-12-23T13:34:03.982Z,99716.72
2022-12-23T13:36:33.874Z,99733.22
2022-12-23T13:39:03.951Z,99738.75
2022-12-23T13:41:30.885Z,99719.47
2022-12-23T13:43:57.477Z,99701.31
2022-12-23T13:46:42.994Z,99696.59
2022-12-23T13:49:28.499Z,99687.25
2022-12-23T13:52:13.937Z,99676.22
2022-12-23T13:54:59.372Z,99664.34
2022-12-23T13:57:44.806Z,99658.03
2022-12-23T14:05:44.059Z,99636.81
2022-12-23T14:08:26.425Z,99640.41
2022-12-23T14:10:54.475Z,99645.06
2022-12-23T14:13:21.430Z,99652.53
2022-12-23T14:15:50.673Z,99641.50
2022-12-23T14:18:24.561Z,99642.31
2022-12-23T14:20:50.850Z,99648.16
2022-12-23T14:23:21.874Z,99634.06
2022-12-23T14:25:50.572Z,99628.53
2022-12-23T14:28:19.811Z,99620.28
2022-12-23T14:30:45.384Z,99621.41
2022-12-23T14:33:21.234Z,99613.97
2022-12-23T14:35:49.519Z,99618.38
2022-12-23T14:40:52.173Z,99601.00
2022-12-23T14:43:24.844Z,99591.91
2022-12-23T14:45:51.007Z,99601.00
2022-12-23T14:48:37.082Z,99601.00
2022-12-23T14:51:22.806Z,99601.00
2022-12-23T14:53:57.196Z,99603.75
2022-12-23T14:56:29.404Z,99606.50
2022-12-23T14:59:04.847Z,99613.97
2022-12-23T15:01:36.518Z,99608.44
2022-12-23T15:04:06.529Z,99602.94
2022-12-23T15:06:36.093Z,99602.13
2022-12-23T15:09:01.879Z,99600.19
2022-12-23T15:11:29.482Z,99596.63
2022-12-23T15:13:55.697Z,99591.09
2022-12-23T15:16:26.695Z,99580.91
2022-12-23T15:18:54.125Z,99593.88
2022-12-23T15:21:19.681Z,99591.91
2022-12-23T15:23:49.422Z,99591.91
2022-12-23T15:26:15.007Z,99594.69
2022-12-23T15:28:40.726Z,99593.88
2022-12-23T15:31:06.816Z,99593.88
2022-12-23T15:34:02.247Z,99597.44
2022-12-23T15:36:22.830Z,99591.09
2022-12-23T15:38:48.386Z,99597.44
2022-12-23T15:41:14.808Z,99586.41
2022-12-23T15:43:40.605Z,99591.09
2022-12-23T15:46:08.585Z,99591.09
2022-12-23T15:48:34.158Z,99599.38
2022-12-23T15:51:02.009Z,99601.00
2022-12-23T15:53:30.300Z,99595.81
2022-12-23T15:55:55.890Z,99605.69
2022-12-23T15:58:21.877Z,99604.06
2022-12-23T16:00:49.924Z,99613.97
2022-12-23T16:03:35.686Z,99611.19
2022-12-23T16:06:05.457Z,99618.66
2022-12-23T16:08:31.013Z,99624.16
2022-12-23T16:10:57.717Z,99628.53
2022-12-23T16:13:23.300Z,99614.28
2022-12-23T16:15:48.925Z,99626.91
2022-12-23T16:18:22.501Z,99632.44
2022-12-23T16:20:48.684Z,99636.00
2022-12-23T16:23:14.234Z,99640.69
2022-12-23T16:25:40.812Z,99637.94
2022-12-23T16:28:12.016Z,99637.94
2022-12-23T16:30:38.280Z,99640.69
2022-12-23T16:33:06.035Z,99636.31
2022-12-23T16:35:33.518Z,99648.16
2022-12-23T16:38:18.178Z,99655.28
2022-12-23T16:40:44.625Z,99668.25
2022-12-23T16:43:10.204Z,99668.25
2022-12-23T16:45:35.926Z,99673.75
2022-12-23T16:48:02.170Z,99675.38
2022-12-23T16:50:27.730Z,99679.25
2022-12-23T16:52:53.286Z,99680.06
2022-12-23T16:55:19.085Z,99685.59
2022-12-23T16:57:44.828Z,99698.53
2022-12-23T17:00:13.127Z,99701.31
2022-12-23T17:02:38.745Z,99699.38
2022-12-23T17:05:04.434Z,99700.50
2022-12-23T17:07:29.994Z,99706.00
2022-12-23T17:09:55.638Z,99715.88
2022-12-23T17:12:21.199Z,99728.03
2022-12-23T17:14:46.744Z,99724.16
2022-12-23T17:17:14.129Z,99743.44
2022-12-23T17:19:39.749Z,99744.25
2022-12-23T17:22:05.312Z,99746.50
2022-12-23T17:24:30.930Z,99750.06
2022-12-23T17:26:56.841Z,99751.69
2022-12-23T17:29:22.638Z,99753.66
2022-12-23T17:31:48.282Z,99754.47
2022-12-23T17:34:15.023Z,99774.88
2022-12-23T17:36:46.037Z,99774.88
2022-12-23T17:39:14.977Z,99770.19
2022-12-23T17:41:40.539Z,99769.38
2022-12-23T17:44:06.236Z,99777.63
2022-12-23T17:46:31.858Z,99785.88
2022-12-23T17:48:58.408Z,99786.72
2022-12-23T17:51:24.310Z,99785.88
2022-12-23T17:53:55.163Z,99792.22
2022-12-23T17:56:22.595Z,99798.53
2022-12-23T17:58:48.565Z,99802.41
2022-12-23T18:01:18.790Z,99806.00
2022-12-23T18:03:44.431Z,99794.16
2022-12-23T18:06:11.949Z,99796.09
2022-12-23T18:08:37.529Z,99801.59
2022-12-23T18:11:03.089Z,99794.16
2022-12-23T18:13:28.655Z,99796.91
2022-12-23T18:15:54.208Z,99806.31
2022-12-23T18:18:27.508Z,99813.44
2022-12-23T18:20:58.748Z,99813.44
2022-12-23T18:23:25.543Z,99817.31
2022-12-23T18:25:51.124Z,99827.22
2022-12-23T18:28:16.666Z,99832.72
2022-12-23T18:30:42.256Z,99832.72
2022-12-23T18:33:09.685Z,99831.91
2022-12-23T18:35:38.782Z,99835.47
2022-12-23T18:38:04.535Z,99835.47
2022-12-23T18:40:32.912Z,99830.78
2022-12-23T18:42:58.807Z,99831.91
2022-12-23T18:45:27.464Z,99847.31
2022-12-23T18:47:53.189Z,99852.00
2022-12-23T18:50:18.813Z,99859.16
2022-12-23T18:52:45.710Z,99859.16
2022-12-23T18:55:11.856Z,99860.28
2022-12-23T18:57:37.450Z,99857.53
2022-12-23T19:00:03.969Z,99866.59
2022-12-23T19:02:29.536Z,99865.78
2022-12-23T19:04:55.139Z,99869.34
2022-12-23T19:07:20.684Z,99874.88
2022-12-23T19:09:46.245Z,99878.44
2022-12-23T19:12:11.816Z,99885.88
2022-12-23T19:14:37.874Z,99874.88
2022-12-23T19:17:04.032Z,99871.28
2022-12-23T19:19:29.628Z,99879.56
2022-12-23T19:21:55.172Z,99876.81
2022-12-23T19:24:20.739Z,99868.53
2022-12-23T19:26:46.287Z,99872.09
2022-12-23T19:29:11.860Z,99870.47
2022-12-23T19:31:37.428Z,99879.56
2022-12-23T19:34:02.996Z,99880.38
2022-12-23T19:36:28.619Z,99872.41
2022-12-23T19:38:54.886Z,99891.41
2022-12-23T19:41:20.451Z,99892.53
2022-12-23T19:43:46.125Z,99896.91
2022-12-23T19:46:12.457Z,99901.59
2022-12-23T19:48:38.085Z,99910.69
2022-12-23T19:51:04.846Z,99917.00
2022-12-23T19:53:30.409Z,99920.88
2022-12-23T19:56:04.343Z,99924.44
2022-12-23T19:58:31.602Z,99917.31
2022-12-23T20:01:14.995Z,99934.66
2022-12-23T20:03:40.943Z,99942.94
2022-12-23T20:06:09.467Z,99940.16
2022-12-23T20:08:35.037Z,99942.09
2022-12-23T20:11:02.556Z,99952.81
2022-12-23T20:13:28.127Z,99954.75
2022-12-23T20:15:53.744Z,99954.75
2022-12-23T20:18:19.317Z,99962.22
2022-12-23T20:20:44.870Z,99968.53
2022-12-23T20:23:10.430Z,99965.78
2022-12-23T20:25:35.971Z,99976.81
2022-12-23T20:28:01.517Z,99986.19
2022-12-23T20:30:27.071Z,99985.88
2022-12-23T20:32:52.633Z,99992.50
2022-12-23T20:35:18.193Z,100001.59
2022-12-23T20:37:43.768Z,99995.28
2022-12-23T20:40:10.317Z,100004.34
2022-12-23T20:42:35.876Z,100005.47
2022-12-23T20:45:01.440Z,100022.81
2022-12-23T20:47:26.987Z,100015.38
2022-12-23T20:49:52.554Z,100032.72
2022-12-23T20:52:18.101Z,100036.59
2022-12-23T20:54:43.664Z,100040.97
2022-12-23T20:57:09.211Z,100045.69
2022-12-23T20:59:34.814Z,100050.38
2022-12-23T21:02:00.448Z,100054.75
2022-12-23T21:04:26.093Z,100055.88
2022-12-23T21:06:51.655Z,100055.88
2022-12-23T21:09:17.262Z,100057.50
2022-12-23T21:11:43.949Z,100064.16
2022-12-23T21:14:09.698Z,100069.66
2022-12-23T21:16:35.722Z,100064.97
2022-12-23T21:19:01.446Z,100070.47
2022-12-23T21:21:27.099Z,100069.66
2022-12-23T21:23:53.143Z,100074.34
2022-12-23T21:26:19.724Z,100067.72
2022-12-23T21:28:45.610Z,100075.97
2022-12-23T21:31:11.441Z,100087.81
2022-12-23T21:33:37.648Z,100089.75
2022-12-23T21:36:03.731Z,100094.44
2022-12-23T21:38:31.929Z,100101.59
2022-12-23T21:40:59.134Z,100102.41
2022-12-23T21:43:24.708Z,100098.03
2022-12-23T21:45:57.731Z,100104.34
2022-12-23T21:48:23.289Z,100120.88
2022-12-23T21:50:48.843Z,100124.47
2022-12-23T21:53:14.409Z,100124.75
2022-12-23T21:55:39.957Z,100134.66
2022-12-23T21:58:05.630Z,100138.53
2022-12-23T22:00:31.206Z,100144.03
2022-12-23T22:02:56.785Z,100141.28
2022-12-23T22:05:23.087Z,100139.34
2022-12-23T22:07:48.641Z,100142.94
2022-12-23T22:10:14.197Z,100139.34
2022-12-23T22:12:39.771Z,100137.41
2022-12-23T22:15:11.320Z,100142.94
2022-12-23T22:17:37.297Z,100142.09
2022-12-23T22:20:02.963Z,100144.88
2022-12-23T22:22:28.512Z,100155.88
2022-12-23T22:24:54.074Z,100171.28
2022-12-23T22:27:19.629Z,100176.00
2022-12-23T22:29:45.187Z,100178.75
2022-12-23T22:32:10.811Z,100169.66
2022-12-23T22:34:36.423Z,100185.06
2022-12-23T22:37:01.974Z,100182.63
2022-12-23T22:39:27.553Z,100192.53
2022-12-23T22:41:53.124Z,100192.53
2022-12-23T22:44:18.920Z,100194.47
2022-12-23T22:46:44.616Z,100202.72
2022-12-23T22:49:11.143Z,100205.47
2022-12-23T22:51:36.688Z,100204.66
2022-12-23T22:54:02.712Z,100206.28
2022-12-23T22:56:28.276Z,100213.75
2022-12-23T22:58:54.229Z,100219.25
2022-12-23T23:04:11.849Z,100220.06
2022-12-23T23:06:37.768Z,100233.84
2022-12-23T23:09:04.499Z,100247.63
2022-12-23T23:11:30.059Z,100236.59
2022-12-23T23:13:55.766Z,100242.13
2022-12-23T23:16:21.655Z,100247.63
2022-12-23T23:18:47.228Z,100242.13
2022-12-23T23:21:12.856Z,100241.28
2022-12-23T23:23:38.487Z,100247.63
2022-12-23T23:26:04.237Z,100252.31
2022-12-23T23:28:30.109Z,100250.38
2022-12-23T23:31:17.132Z,100258.66
2022-12-23T23:33:41.188Z,100257.81
2022-12-23T23:36:06.961Z,100260.59
2022-12-23T23:38:32.582Z,100259.75
2022-12-23T23:40:58.162Z,100255.88
2022-12-23T23:43:23.835Z,100266.09
2022-12-23T23:45:49.603Z,100266.91
2022-12-23T23:48:15.414Z,100273.53
2022-12-23T23:50:41.076Z,100273.25
2022-12-23T23:53:06.625Z,100269.66
2022-12-23T23:55:32.176Z,100275.19
2022-12-23T23:57:57.718Z,100277.94
